sensor_id;sensor_type;location;lat;lon;timestamp;P1;durP1;ratioP1;P2;durP2;ratioP2
23866;SDS011;12114;53.404;-1.502;2022-08-18T00:00:30;6.22;;;2.03;;
23866;SDS011;12114;53.404;-1.502;2022-08-18T00:03:00;9.43;;;2.60;;
23866;SDS011;12114;53.404;-1.502;2022-08-18T00:05:27;6.82;;;2.30;;
23866;SDS011;12114;53.404;-1.502;2022-08-18T00:07:53;8.43;;;2.20;;
23866;SDS011;12114;53.404;-1.502;2022-08-18T00:10:19;12.88;;;2.67;;
23866;SDS011;12114;53.404;-1.502;2022-08-18T00:12:44;13.80;;;2.45;;
23866;SDS011;12114;53.404;-1.502;2022-08-18T00:15:11;8.80;;;2.45;;
23866;SDS011;12114;53.404;-1.502;2022-08-18T00:17:37;9.98;;;3.13;;
23866;SDS011;12114;53.404;-1.502;2022-08-18T00:20:05;8.00;;;3.00;;
23866;SDS011;12114;53.404;-1.502;2022-08-18T00:22:31;7.38;;;3.20;;
23866;SDS011;12114;53.404;-1.502;2022-08-18T00:24:57;11.32;;;3.25;;
23866;SDS011;12114;53.404;-1.502;2022-08-18T00:27:25;17.25;;;3.67;;
23866;SDS011;12114;53.404;-1.502;2022-08-18T00:29:52;12.80;;;3.17;;
23866;SDS011;12114;53.404;-1.502;2022-08-18T00:32:19;9.27;;;3.40;;
23866;SDS011;12114;53.404;-1.502;2022-08-18T00:34:44;11.05;;;4.07;;
23866;SDS011;12114;53.404;-1.502;2022-08-18T00:37:10;12.05;;;3.80;;
23866;SDS011;12114;53.404;-1.502;2022-08-18T00:39:35;11.43;;;3.95;;
23866;SDS011;12114;53.404;-1.502;2022-08-18T00:44:38;11.93;;;4.07;;
23866;SDS011;12114;53.404;-1.502;2022-08-18T00:47:06;10.65;;;2.88;;
23866;SDS011;12114;53.404;-1.502;2022-08-18T00:49:32;9.77;;;3.50;;
23866;SDS011;12114;53.404;-1.502;2022-08-18T00:51:57;12.80;;;3.92;;
23866;SDS011;12114;53.404;-1.502;2022-08-18T00:54:26;13.25;;;3.88;;
23866;SDS011;12114;53.404;-1.502;2022-08-18T00:56:55;11.55;;;3.50;;
23866;SDS011;12114;53.404;-1.502;2022-08-18T01:01:48;10.05;;;3.05;;
23866;SDS011;12114;53.404;-1.502;2022-08-18T01:04:15;11.40;;;3.40;;
23866;SDS011;12114;53.404;-1.502;2022-08-18T01:06:49;10.35;;;2.92;;
23866;SDS011;12114;53.404;-1.502;2022-08-18T01:09:19;8.95;;;2.90;;
23866;SDS011;12114;53.404;-1.502;2022-08-18T01:11:46;12.15;;;3.40;;
23866;SDS011;12114;53.404;-1.502;2022-08-18T01:14:12;8.02;;;2.92;;
23866;SDS011;12114;53.404;-1.502;2022-08-18T01:16:41;14.13;;;2.95;;
23866;SDS011;12114;53.404;-1.502;2022-08-18T01:19:26;6.83;;;2.53;;
23866;SDS011;12114;53.404;-1.502;2022-08-18T01:22:34;8.57;;;2.37;;
23866;SDS011;12114;53.404;-1.502;2022-08-18T01:24:56;11.32;;;2.80;;
23866;SDS011;12114;53.404;-1.502;2022-08-18T01:27:41;5.93;;;2.58;;
23866;SDS011;12114;53.404;-1.502;2022-08-18T01:30:09;9.45;;;2.83;;
23866;SDS011;12114;53.404;-1.502;2022-08-18T01:32:35;9.00;;;2.65;;
23866;SDS011;12114;53.404;-1.502;2022-08-18T01:35:03;9.60;;;2.65;;
23866;SDS011;12114;53.404;-1.502;2022-08-18T01:37:30;5.97;;;2.17;;
23866;SDS011;12114;53.404;-1.502;2022-08-18T01:39:55;9.38;;;2.75;;
23866;SDS011;12114;53.404;-1.502;2022-08-18T01:42:21;6.45;;;2.38;;
23866;SDS011;12114;53.404;-1.502;2022-08-18T01:44:47;8.90;;;2.55;;
23866;SDS011;12114;53.404;-1.502;2022-08-18T01:47:13;10.90;;;2.42;;
23866;SDS011;12114;53.404;-1.502;2022-08-18T01:49:39;10.52;;;2.40;;
23866;SDS011;12114;53.404;-1.502;2022-08-18T01:52:08;8.55;;;2.90;;
23866;SDS011;12114;53.404;-1.502;2022-08-18T01:54:34;12.52;;;3.00;;
23866;SDS011;12114;53.404;-1.502;2022-08-18T01:57:00;8.35;;;2.50;;
23866;SDS011;12114;53.404;-1.502;2022-08-18T01:59:26;11.93;;;2.75;;
23866;SDS011;12114;53.404;-1.502;2022-08-18T02:01:51;9.98;;;2.97;;
23866;SDS011;12114;53.404;-1.502;2022-08-18T02:04:21;6.47;;;2.25;;
23866;SDS011;12114;53.404;-1.502;2022-08-18T02:06:48;6.97;;;2.10;;
23866;SDS011;12114;53.404;-1.502;2022-08-18T02:09:14;9.90;;;2.83;;
23866;SDS011;12114;53.404;-1.502;2022-08-18T02:11:39;6.10;;;2.53;;
23866;SDS011;12114;53.404;-1.502;2022-08-18T02:14:04;7.97;;;2.55;;
23866;SDS011;12114;53.404;-1.502;2022-08-18T02:16:30;11.15;;;3.20;;
23866;SDS011;12114;53.404;-1.502;2022-08-18T02:18:57;7.55;;;2.80;;
23866;SDS011;12114;53.404;-1.502;2022-08-18T02:21:22;8.25;;;2.80;;
23866;SDS011;12114;53.404;-1.502;2022-08-18T02:23:48;9.05;;;2.65;;
23866;SDS011;12114;53.404;-1.502;2022-08-18T02:26:14;8.75;;;2.90;;
23866;SDS011;12114;53.404;-1.502;2022-08-18T02:28:40;12.02;;;3.05;;
23866;SDS011;12114;53.404;-1.502;2022-08-18T02:31:16;7.47;;;3.22;;
23866;SDS011;12114;53.404;-1.502;2022-08-18T02:33:42;12.10;;;3.78;;
23866;SDS011;12114;53.404;-1.502;2022-08-18T02:36:08;11.63;;;3.35;;
23866;SDS011;12114;53.404;-1.502;2022-08-18T02:38:34;9.82;;;3.97;;
23866;SDS011;12114;53.404;-1.502;2022-08-18T02:41:01;8.10;;;3.55;;
23866;SDS011;12114;53.404;-1.502;2022-08-18T02:43:27;11.43;;;3.75;;
23866;SDS011;12114;53.404;-1.502;2022-08-18T02:45:55;10.27;;;3.65;;
23866;SDS011;12114;53.404;-1.502;2022-08-18T02:48:21;9.93;;;3.70;;
23866;SDS011;12114;53.404;-1.502;2022-08-18T02:51:09;11.65;;;3.75;;
23866;SDS011;12114;53.404;-1.502;2022-08-18T02:53:36;11.93;;;3.67;;
23866;SDS011;12114;53.404;-1.502;2022-08-18T02:56:07;13.63;;;3.88;;
23866;SDS011;12114;53.404;-1.502;2022-08-18T02:58:52;11.27;;;3.55;;
23866;SDS011;12114;53.404;-1.502;2022-08-18T03:01:25;13.55;;;4.32;;
23866;SDS011;12114;53.404;-1.502;2022-08-18T03:03:51;11.35;;;2.67;;
23866;SDS011;12114;53.404;-1.502;2022-08-18T03:06:17;9.88;;;3.40;;
23866;SDS011;12114;53.404;-1.502;2022-08-18T03:08:42;10.85;;;3.35;;
23866;SDS011;12114;53.404;-1.502;2022-08-18T03:11:20;8.88;;;2.90;;
23866;SDS011;12114;53.404;-1.502;2022-08-18T03:13:46;9.40;;;3.00;;
23866;SDS011;12114;53.404;-1.502;2022-08-18T03:16:12;14.60;;;3.13;;
23866;SDS011;12114;53.404;-1.502;2022-08-18T03:18:38;9.50;;;2.97;;
23866;SDS011;12114;53.404;-1.502;2022-08-18T03:21:07;15.45;;;3.08;;
23866;SDS011;12114;53.404;-1.502;2022-08-18T03:23:34;8.45;;;2.90;;
23866;SDS011;12114;53.404;-1.502;2022-08-18T03:26:00;9.23;;;2.65;;
23866;SDS011;12114;53.404;-1.502;2022-08-18T03:28:26;8.48;;;2.83;;
23866;SDS011;12114;53.404;-1.502;2022-08-18T03:30:53;6.03;;;2.38;;
23866;SDS011;12114;53.404;-1.502;2022-08-18T03:33:18;8.77;;;2.55;;
23866;SDS011;12114;53.404;-1.502;2022-08-18T03:35:44;5.15;;;2.10;;
23866;SDS011;12114;53.404;-1.502;2022-08-18T03:38:10;16.63;;;2.90;;
23866;SDS011;12114;53.404;-1.502;2022-08-18T03:40:35;6.90;;;2.60;;
23866;SDS011;12114;53.404;-1.502;2022-08-18T03:43:02;5.78;;;2.38;;
23866;SDS011;12114;53.404;-1.502;2022-08-18T03:45:31;9.75;;;2.97;;
23866;SDS011;12114;53.404;-1.502;2022-08-18T03:47:56;12.95;;;2.90;;
23866;SDS011;12114;53.404;-1.502;2022-08-18T03:50:22;9.35;;;2.88;;
23866;SDS011;12114;53.404;-1.502;2022-08-18T03:52:49;12.32;;;2.75;;
23866;SDS011;12114;53.404;-1.502;2022-08-18T03:55:15;4.68;;;2.28;;
23866;SDS011;12114;53.404;-1.502;2022-08-18T03:57:43;9.00;;;2.63;;
23866;SDS011;12114;53.404;-1.502;2022-08-18T04:00:10;6.97;;;2.10;;
23866;SDS011;12114;53.404;-1.502;2022-08-18T04:02:38;10.30;;;3.03;;
23866;SDS011;12114;53.404;-1.502;2022-08-18T04:05:05;8.10;;;2.50;;
23866;SDS011;12114;53.404;-1.502;2022-08-18T04:07:30;5.65;;;2.30;;
23866;SDS011;12114;53.404;-1.502;2022-08-18T04:09:56;9.32;;;2.47;;
23866;SDS011;12114;53.404;-1.502;2022-08-18T04:12:22;11.52;;;2.50;;
23866;SDS011;12114;53.404;-1.502;2022-08-18T04:14:47;6.97;;;2.50;;
23866;SDS011;12114;53.404;-1.502;2022-08-18T04:17:13;9.35;;;2.17;;
23866;SDS011;12114;53.404;-1.502;2022-08-18T04:19:38;7.93;;;2.58;;
23866;SDS011;12114;53.404;-1.502;2022-08-18T04:22:04;8.68;;;2.50;;
23866;SDS011;12114;53.404;-1.502;2022-08-18T04:24:30;10.35;;;2.22;;
23866;SDS011;12114;53.404;-1.502;2022-08-18T04:26:57;9.68;;;2.78;;
23866;SDS011;12114;53.404;-1.502;2022-08-18T04:29:23;10.40;;;2.92;;
23866;SDS011;12114;53.404;-1.502;2022-08-18T04:31:49;8.63;;;2.40;;
23866;SDS011;12114;53.404;-1.502;2022-08-18T04:34:16;7.68;;;2.38;;
23866;SDS011;12114;53.404;-1.502;2022-08-18T04:36:42;7.28;;;2.00;;
23866;SDS011;12114;53.404;-1.502;2022-08-18T04:39:08;8.98;;;2.58;;
23866;SDS011;12114;53.404;-1.502;2022-08-18T04:41:34;7.38;;;2.25;;
23866;SDS011;12114;53.404;-1.502;2022-08-18T04:44:03;7.95;;;2.40;;
23866;SDS011;12114;53.404;-1.502;2022-08-18T04:46:29;9.38;;;2.67;;
23866;SDS011;12114;53.404;-1.502;2022-08-18T04:48:56;8.98;;;2.70;;
23866;SDS011;12114;53.404;-1.502;2022-08-18T04:51:23;4.60;;;2.30;;
23866;SDS011;12114;53.404;-1.502;2022-08-18T04:53:49;7.13;;;2.53;;
23866;SDS011;12114;53.404;-1.502;2022-08-18T04:56:21;9.73;;;2.15;;
23866;SDS011;12114;53.404;-1.502;2022-08-18T05:01:23;7.97;;;2.20;;
23866;SDS011;12114;53.404;-1.502;2022-08-18T05:03:50;6.00;;;2.38;;
23866;SDS011;12114;53.404;-1.502;2022-08-18T05:06:16;8.55;;;2.50;;
23866;SDS011;12114;53.404;-1.502;2022-08-18T05:08:42;8.05;;;2.40;;
23866;SDS011;12114;53.404;-1.502;2022-08-18T05:11:08;8.75;;;2.38;;
23866;SDS011;12114;53.404;-1.502;2022-08-18T05:13:34;9.95;;;2.83;;
23866;SDS011;12114;53.404;-1.502;2022-08-18T05:16:00;12.65;;;2.50;;
23866;SDS011;12114;53.404;-1.502;2022-08-18T05:18:33;7.22;;;2.30;;
23866;SDS011;12114;53.404;-1.502;2022-08-18T05:21:02;11.13;;;2.80;;
23866;SDS011;12114;53.404;-1.502;2022-08-18T05:23:28;8.73;;;2.40;;
23866;SDS011;12114;53.404;-1.502;2022-08-18T05:25:58;6.88;;;2.08;;
23866;SDS011;12114;53.404;-1.502;2022-08-18T05:28:24;10.02;;;2.60;;
23866;SDS011;12114;53.404;-1.502;2022-08-18T05:30:49;10.45;;;2.67;;
23866;SDS011;12114;53.404;-1.502;2022-08-18T05:33:14;7.10;;;2.53;;
23866;SDS011;12114;53.404;-1.502;2022-08-18T05:35:44;11.07;;;2.92;;
23866;SDS011;12114;53.404;-1.502;2022-08-18T05:41:10;7.40;;;2.33;;
23866;SDS011;12114;53.404;-1.502;2022-08-18T05:43:37;9.18;;;2.45;;
23866;SDS011;12114;53.404;-1.502;2022-08-18T05:46:04;6.90;;;2.25;;
23866;SDS011;12114;53.404;-1.502;2022-08-18T05:48:30;7.75;;;2.25;;
23866;SDS011;12114;53.404;-1.502;2022-08-18T05:50:55;6.53;;;2.05;;
23866;SDS011;12114;53.404;-1.502;2022-08-18T05:53:21;7.68;;;2.40;;
23866;SDS011;12114;53.404;-1.502;2022-08-18T05:56:08;9.35;;;2.25;;
23866;SDS011;12114;53.404;-1.502;2022-08-18T05:58:53;5.65;;;2.05;;
23866;SDS011;12114;53.404;-1.502;2022-08-18T06:01:24;7.40;;;2.20;;
23866;SDS011;12114;53.404;-1.502;2022-08-18T06:03:56;7.78;;;2.30;;
23866;SDS011;12114;53.404;-1.502;2022-08-18T06:06:26;9.82;;;2.75;;
23866;SDS011;12114;53.404;-1.502;2022-08-18T06:09:01;8.55;;;2.25;;
23866;SDS011;12114;53.404;-1.502;2022-08-18T06:11:27;7.85;;;2.20;;
23866;SDS011;12114;53.404;-1.502;2022-08-18T06:13:53;9.18;;;3.00;;
23866;SDS011;12114;53.404;-1.502;2022-08-18T06:31:44;10.18;;;3.08;;
23866;SDS011;12114;53.404;-1.502;2022-08-18T06:36:51;6.80;;;1.80;;
23866;SDS011;12114;53.404;-1.502;2022-08-18T06:41:52;7.55;;;2.38;;
23866;SDS011;12114;53.404;-1.502;2022-08-18T06:44:20;4.72;;;2.20;;
23866;SDS011;12114;53.404;-1.502;2022-08-18T06:49:38;6.25;;;2.08;;
23866;SDS011;12114;53.404;-1.502;2022-08-18T06:56:57;7.97;;;2.10;;
23866;SDS011;12114;53.404;-1.502;2022-08-18T06:59:28;10.88;;;2.30;;
23866;SDS011;12114;53.404;-1.502;2022-08-18T07:01:59;5.60;;;2.05;;
23866;SDS011;12114;53.404;-1.502;2022-08-18T07:04:35;8.38;;;2.60;;
23866;SDS011;12114;53.404;-1.502;2022-08-18T07:07:57;4.25;;;2.08;;
23866;SDS011;12114;53.404;-1.502;2022-08-18T07:09:47;10.55;;;2.58;;
23866;SDS011;12114;53.404;-1.502;2022-08-18T07:12:17;6.63;;;2.42;;
23866;SDS011;12114;53.404;-1.502;2022-08-18T07:14:44;3.97;;;1.92;;
23866;SDS011;12114;53.404;-1.502;2022-08-18T07:17:11;6.13;;;2.17;;
23866;SDS011;12114;53.404;-1.502;2022-08-18T07:19:40;7.63;;;2.17;;
23866;SDS011;12114;53.404;-1.502;2022-08-18T07:24:37;7.40;;;2.33;;
23866;SDS011;12114;53.404;-1.502;2022-08-18T07:27:11;10.75;;;2.40;;
23866;SDS011;12114;53.404;-1.502;2022-08-18T07:29:38;7.85;;;2.33;;
23866;SDS011;12114;53.404;-1.502;2022-08-18T07:32:14;8.27;;;2.60;;
23866;SDS011;12114;53.404;-1.502;2022-08-18T07:34:43;8.95;;;2.97;;
23866;SDS011;12114;53.404;-1.502;2022-08-18T07:40:17;11.52;;;4.53;;
23866;SDS011;12114;53.404;-1.502;2022-08-18T07:43:28;16.00;;;3.47;;
23866;SDS011;12114;53.404;-1.502;2022-08-18T07:45:36;10.80;;;4.57;;
23866;SDS011;12114;53.404;-1.502;2022-08-18T07:56:11;15.18;;;5.22;;
23866;SDS011;12114;53.404;-1.502;2022-08-18T08:06:28;16.73;;;5.00;;
23866;SDS011;12114;53.404;-1.502;2022-08-18T08:19:28;16.80;;;5.25;;
23866;SDS011;12114;53.404;-1.502;2022-08-18T08:22:03;13.45;;;4.75;;
23866;SDS011;12114;53.404;-1.502;2022-08-18T08:24:36;11.18;;;3.65;;
23866;SDS011;12114;53.404;-1.502;2022-08-18T08:27:09;14.15;;;4.85;;
23866;SDS011;12114;53.404;-1.502;2022-08-18T08:29:46;12.98;;;4.75;;
23866;SDS011;12114;53.404;-1.502;2022-08-18T08:32:25;16.60;;;4.53;;
23866;SDS011;12114;53.404;-1.502;2022-08-18T08:35:00;14.98;;;5.32;;
23866;SDS011;12114;53.404;-1.502;2022-08-18T08:40:14;12.55;;;4.70;;
23866;SDS011;12114;53.404;-1.502;2022-08-18T08:42:46;14.00;;;4.95;;
23866;SDS011;12114;53.404;-1.502;2022-08-18T08:45:25;13.63;;;4.90;;
23866;SDS011;12114;53.404;-1.502;2022-08-18T08:50:32;15.55;;;4.78;;
23866;SDS011;12114;53.404;-1.502;2022-08-18T08:53:00;12.90;;;4.10;;
23866;SDS011;12114;53.404;-1.502;2022-08-18T08:55:28;11.07;;;4.15;;
23866;SDS011;12114;53.404;-1.502;2022-08-18T09:00:20;9.00;;;4.32;;
23866;SDS011;12114;53.404;-1.502;2022-08-18T09:03:01;13.52;;;4.53;;
23866;SDS011;12114;53.404;-1.502;2022-08-18T09:06:18;7.55;;;4.50;;
23866;SDS011;12114;53.404;-1.502;2022-08-18T09:11:05;7.93;;;4.70;;
23866;SDS011;12114;53.404;-1.502;2022-08-18T09:13:39;8.55;;;4.53;;
23866;SDS011;12114;53.404;-1.502;2022-08-18T09:24:11;9.52;;;4.43;;
23866;SDS011;12114;53.404;-1.502;2022-08-18T09:26:51;6.80;;;3.72;;
23866;SDS011;12114;53.404;-1.502;2022-08-18T09:29:25;8.10;;;3.95;;
23866;SDS011;12114;53.404;-1.502;2022-08-18T09:34:42;6.00;;;3.33;;
23866;SDS011;12114;53.404;-1.502;2022-08-18T09:37:11;5.63;;;3.10;;
23866;SDS011;12114;53.404;-1.502;2022-08-18T09:39:50;5.72;;;2.90;;
23866;SDS011;12114;53.404;-1.502;2022-08-18T09:42:49;5.43;;;2.90;;
23866;SDS011;12114;53.404;-1.502;2022-08-18T09:52:51;4.50;;;3.63;;
23866;SDS011;12114;53.404;-1.502;2022-08-18T09:57:43;6.40;;;3.10;;
23866;SDS011;12114;53.404;-1.502;2022-08-18T10:07:37;4.50;;;3.67;;
23866;SDS011;12114;53.404;-1.502;2022-08-18T10:10:09;6.03;;;3.83;;
23866;SDS011;12114;53.404;-1.502;2022-08-18T10:22:46;5.25;;;3.75;;
23866;SDS011;12114;53.404;-1.502;2022-08-18T10:25:12;5.90;;;4.38;;
23866;SDS011;12114;53.404;-1.502;2022-08-18T10:33:00;6.18;;;4.32;;
23866;SDS011;12114;53.404;-1.502;2022-08-18T10:38:01;7.75;;;4.95;;
23866;SDS011;12114;53.404;-1.502;2022-08-18T10:40:30;8.80;;;5.35;;
23866;SDS011;12114;53.404;-1.502;2022-08-18T10:43:12;6.50;;;4.63;;
23866;SDS011;12114;53.404;-1.502;2022-08-18T10:45:43;10.27;;;5.18;;
23866;SDS011;12114;53.404;-1.502;2022-08-18T10:51:24;9.02;;;5.38;;
23866;SDS011;12114;53.404;-1.502;2022-08-18T10:53:30;7.50;;;4.95;;
23866;SDS011;12114;53.404;-1.502;2022-08-18T10:56:02;6.40;;;4.60;;
23866;SDS011;12114;53.404;-1.502;2022-08-18T11:06:08;8.73;;;5.25;;
23866;SDS011;12114;53.404;-1.502;2022-08-18T11:08:43;7.40;;;4.88;;
23866;SDS011;12114;53.404;-1.502;2022-08-18T11:11:10;8.77;;;4.28;;
23866;SDS011;12114;53.404;-1.502;2022-08-18T11:21:22;6.90;;;4.90;;
23866;SDS011;12114;53.404;-1.502;2022-08-18T11:26:33;8.70;;;5.63;;
23866;SDS011;12114;53.404;-1.502;2022-08-18T11:29:00;8.20;;;5.20;;
23866;SDS011;12114;53.404;-1.502;2022-08-18T11:31:25;11.50;;;6.28;;
23866;SDS011;12114;53.404;-1.502;2022-08-18T11:33:50;12.15;;;6.10;;
23866;SDS011;12114;53.404;-1.502;2022-08-18T11:36:16;9.00;;;5.25;;
23866;SDS011;12114;53.404;-1.502;2022-08-18T11:38:54;7.63;;;5.50;;
23866;SDS011;12114;53.404;-1.502;2022-08-18T11:41:19;7.55;;;4.57;;
23866;SDS011;12114;53.404;-1.502;2022-08-18T11:43:54;8.13;;;4.90;;
23866;SDS011;12114;53.404;-1.502;2022-08-18T11:48:49;9.35;;;5.22;;
23866;SDS011;12114;53.404;-1.502;2022-08-18T11:58:45;9.52;;;5.20;;
23866;SDS011;12114;53.404;-1.502;2022-08-18T12:01:27;8.82;;;4.25;;
23866;SDS011;12114;53.404;-1.502;2022-08-18T12:03:55;5.75;;;3.47;;
23866;SDS011;12114;53.404;-1.502;2022-08-18T12:06:28;7.18;;;3.08;;
23866;SDS011;12114;53.404;-1.502;2022-08-18T12:08:55;6.25;;;3.05;;
23866;SDS011;12114;53.404;-1.502;2022-08-18T12:11:29;4.95;;;2.53;;
23866;SDS011;12114;53.404;-1.502;2022-08-18T12:13:59;5.18;;;2.70;;
23866;SDS011;12114;53.404;-1.502;2022-08-18T12:16:36;4.95;;;2.50;;
23866;SDS011;12114;53.404;-1.502;2022-08-18T12:19:02;4.80;;;3.17;;
23866;SDS011;12114;53.404;-1.502;2022-08-18T12:21:28;4.78;;;2.85;;
23866;SDS011;12114;53.404;-1.502;2022-08-18T12:23:53;5.05;;;3.05;;
23866;SDS011;12114;53.404;-1.502;2022-08-18T12:26:19;5.05;;;3.42;;
23866;SDS011;12114;53.404;-1.502;2022-08-18T12:28:45;4.90;;;3.00;;
23866;SDS011;12114;53.404;-1.502;2022-08-18T12:31:10;5.28;;;3.28;;
23866;SDS011;12114;53.404;-1.502;2022-08-18T12:33:35;4.53;;;3.50;;
23866;SDS011;12114;53.404;-1.502;2022-08-18T12:36:02;4.32;;;3.03;;
23866;SDS011;12114;53.404;-1.502;2022-08-18T12:38:28;4.28;;;2.80;;
23866;SDS011;12114;53.404;-1.502;2022-08-18T12:40:53;8.05;;;3.67;;
23866;SDS011;12114;53.404;-1.502;2022-08-18T12:43:19;6.40;;;3.30;;
23866;SDS011;12114;53.404;-1.502;2022-08-18T12:45:45;5.85;;;3.83;;
23866;SDS011;12114;53.404;-1.502;2022-08-18T12:48:10;6.97;;;3.88;;
23866;SDS011;12114;53.404;-1.502;2022-08-18T12:50:36;7.10;;;3.25;;
23866;SDS011;12114;53.404;-1.502;2022-08-18T12:53:02;6.68;;;4.10;;
23866;SDS011;12114;53.404;-1.502;2022-08-18T12:55:29;6.57;;;3.83;;
23866;SDS011;12114;53.404;-1.502;2022-08-18T12:57:55;6.95;;;3.72;;
23866;SDS011;12114;53.404;-1.502;2022-08-18T13:00:21;5.50;;;4.75;;
23866;SDS011;12114;53.404;-1.502;2022-08-18T13:02:47;6.25;;;4.38;;
23866;SDS011;12114;53.404;-1.502;2022-08-18T13:05:12;5.07;;;4.07;;
23866;SDS011;12114;53.404;-1.502;2022-08-18T13:07:37;6.18;;;3.92;;
23866;SDS011;12114;53.404;-1.502;2022-08-18T13:10:06;8.80;;;3.85;;
23866;SDS011;12114;53.404;-1.502;2022-08-18T13:12:31;6.50;;;4.00;;
23866;SDS011;12114;53.404;-1.502;2022-08-18T13:14:57;6.60;;;4.60;;
23866;SDS011;12114;53.404;-1.502;2022-08-18T13:17:23;5.97;;;4.40;;
23866;SDS011;12114;53.404;-1.502;2022-08-18T13:19:49;8.00;;;5.30;;
23866;SDS011;12114;53.404;-1.502;2022-08-18T13:22:15;7.93;;;4.85;;
23866;SDS011;12114;53.404;-1.502;2022-08-18T13:24:40;7.53;;;4.00;;
23866;SDS011;12114;53.404;-1.502;2022-08-18T13:27:05;7.05;;;4.45;;
23866;SDS011;12114;53.404;-1.502;2022-08-18T13:29:31;6.22;;;4.78;;
23866;SDS011;12114;53.404;-1.502;2022-08-18T13:31:56;8.27;;;4.78;;
23866;SDS011;12114;53.404;-1.502;2022-08-18T13:34:26;7.82;;;4.10;;
23866;SDS011;12114;53.404;-1.502;2022-08-18T13:36:55;6.72;;;4.68;;
23866;SDS011;12114;53.404;-1.502;2022-08-18T13:39:22;5.72;;;4.72;;
23866;SDS011;12114;53.404;-1.502;2022-08-18T13:41:49;8.30;;;5.40;;
23866;SDS011;12114;53.404;-1.502;2022-08-18T13:44:16;14.35;;;5.30;;
23866;SDS011;12114;53.404;-1.502;2022-08-18T13:46:42;8.77;;;5.18;;
23866;SDS011;12114;53.404;-1.502;2022-08-18T13:49:11;8.68;;;5.57;;
23866;SDS011;12114;53.404;-1.502;2022-08-18T13:51:39;11.00;;;6.00;;
23866;SDS011;12114;53.404;-1.502;2022-08-18T13:54:06;9.05;;;5.82;;
23866;SDS011;12114;53.404;-1.502;2022-08-18T13:56:31;7.55;;;5.28;;
23866;SDS011;12114;53.404;-1.502;2022-08-18T13:58:58;6.75;;;4.97;;
23866;SDS011;12114;53.404;-1.502;2022-08-18T14:01:24;7.45;;;5.15;;
23866;SDS011;12114;53.404;-1.502;2022-08-18T14:03:49;6.35;;;4.82;;
23866;SDS011;12114;53.404;-1.502;2022-08-18T14:06:15;8.30;;;5.25;;
23866;SDS011;12114;53.404;-1.502;2022-08-18T14:08:40;7.70;;;5.68;;
23866;SDS011;12114;53.404;-1.502;2022-08-18T14:11:06;7.97;;;6.05;;
23866;SDS011;12114;53.404;-1.502;2022-08-18T14:13:31;8.48;;;6.00;;
23866;SDS011;12114;53.404;-1.502;2022-08-18T14:15:57;6.70;;;5.47;;
23866;SDS011;12114;53.404;-1.502;2022-08-18T14:18:23;7.07;;;5.78;;
23866;SDS011;12114;53.404;-1.502;2022-08-18T14:20:54;10.75;;;6.38;;
23866;SDS011;12114;53.404;-1.502;2022-08-18T14:23:40;8.05;;;5.63;;
23866;SDS011;12114;53.404;-1.502;2022-08-18T14:26:24;9.77;;;7.55;;
23866;SDS011;12114;53.404;-1.502;2022-08-18T14:29:08;8.07;;;6.90;;
23866;SDS011;12114;53.404;-1.502;2022-08-18T14:31:33;10.85;;;6.70;;
23866;SDS011;12114;53.404;-1.502;2022-08-18T14:33:58;12.23;;;6.78;;
23866;SDS011;12114;53.404;-1.502;2022-08-18T14:36:24;9.57;;;7.28;;
23866;SDS011;12114;53.404;-1.502;2022-08-18T14:38:49;8.35;;;7.45;;
23866;SDS011;12114;53.404;-1.502;2022-08-18T14:41:15;9.27;;;6.53;;
23866;SDS011;12114;53.404;-1.502;2022-08-18T14:43:41;10.65;;;7.03;;
23866;SDS011;12114;53.404;-1.502;2022-08-18T14:46:09;8.20;;;6.20;;
23866;SDS011;12114;53.404;-1.502;2022-08-18T14:48:35;7.47;;;6.00;;
23866;SDS011;12114;53.404;-1.502;2022-08-18T14:51:01;8.10;;;5.53;;
23866;SDS011;12114;53.404;-1.502;2022-08-18T14:53:28;11.00;;;5.88;;
23866;SDS011;12114;53.404;-1.502;2022-08-18T14:55:54;8.10;;;5.90;;
23866;SDS011;12114;53.404;-1.502;2022-08-18T14:58:24;9.20;;;5.40;;
23866;SDS011;12114;53.404;-1.502;2022-08-18T15:00:53;8.48;;;6.43;;
23866;SDS011;12114;53.404;-1.502;2022-08-18T15:03:19;7.97;;;5.50;;
23866;SDS011;12114;53.404;-1.502;2022-08-18T15:05:44;8.93;;;5.82;;
23866;SDS011;12114;53.404;-1.502;2022-08-18T15:08:10;7.35;;;5.50;;
23866;SDS011;12114;53.404;-1.502;2022-08-18T15:10:35;8.75;;;4.95;;
23866;SDS011;12114;53.404;-1.502;2022-08-18T15:13:01;7.00;;;5.13;;
23866;SDS011;12114;53.404;-1.502;2022-08-18T15:15:26;7.57;;;5.07;;
23866;SDS011;12114;53.404;-1.502;2022-08-18T15:17:52;7.55;;;5.50;;
23866;SDS011;12114;53.404;-1.502;2022-08-18T15:20:22;6.70;;;4.75;;
23866;SDS011;12114;53.404;-1.502;2022-08-18T15:22:47;6.32;;;4.80;;
23866;SDS011;12114;53.404;-1.502;2022-08-18T15:25:36;7.22;;;5.15;;
23866;SDS011;12114;53.404;-1.502;2022-08-18T15:28:15;7.90;;;6.10;;
23866;SDS011;12114;53.404;-1.502;2022-08-18T15:30:44;8.98;;;5.72;;
23866;SDS011;12114;53.404;-1.502;2022-08-18T15:33:10;7.50;;;5.40;;
23866;SDS011;12114;53.404;-1.502;2022-08-18T15:35:36;12.35;;;5.47;;
23866;SDS011;12114;53.404;-1.502;2022-08-18T15:38:03;8.93;;;4.97;;
23866;SDS011;12114;53.404;-1.502;2022-08-18T15:40:28;7.00;;;5.05;;
23866;SDS011;12114;53.404;-1.502;2022-08-18T15:42:57;7.47;;;4.80;;
23866;SDS011;12114;53.404;-1.502;2022-08-18T15:45:30;5.50;;;3.88;;
23866;SDS011;12114;53.404;-1.502;2022-08-18T15:47:59;5.57;;;3.50;;
23866;SDS011;12114;53.404;-1.502;2022-08-18T15:50:25;3.78;;;3.20;;
23866;SDS011;12114;53.404;-1.502;2022-08-18T15:52:51;4.47;;;3.15;;
23866;SDS011;12114;53.404;-1.502;2022-08-18T15:55:18;6.05;;;3.10;;
23866;SDS011;12114;53.404;-1.502;2022-08-18T15:57:45;5.78;;;3.33;;
23866;SDS011;12114;53.404;-1.502;2022-08-18T16:00:11;5.15;;;3.45;;
23866;SDS011;12114;53.404;-1.502;2022-08-18T16:02:38;6.72;;;3.33;;
23866;SDS011;12114;53.404;-1.502;2022-08-18T16:05:04;4.53;;;2.90;;
23866;SDS011;12114;53.404;-1.502;2022-08-18T16:07:30;3.90;;;3.10;;
23866;SDS011;12114;53.404;-1.502;2022-08-18T16:09:56;5.53;;;3.72;;
23866;SDS011;12114;53.404;-1.502;2022-08-18T16:12:21;7.57;;;3.80;;
23866;SDS011;12114;53.404;-1.502;2022-08-18T16:14:46;5.57;;;3.72;;
23866;SDS011;12114;53.404;-1.502;2022-08-18T16:17:12;5.18;;;3.45;;
23866;SDS011;12114;53.404;-1.502;2022-08-18T16:19:39;7.63;;;4.03;;
23866;SDS011;12114;53.404;-1.502;2022-08-18T16:22:04;7.15;;;3.97;;
23866;SDS011;12114;53.404;-1.502;2022-08-18T16:24:30;4.72;;;3.38;;
23866;SDS011;12114;53.404;-1.502;2022-08-18T16:26:55;6.32;;;3.65;;
23866;SDS011;12114;53.404;-1.502;2022-08-18T16:29:21;7.90;;;3.70;;
23866;SDS011;12114;53.404;-1.502;2022-08-18T16:31:47;5.30;;;4.60;;
23866;SDS011;12114;53.404;-1.502;2022-08-18T16:34:13;9.95;;;4.35;;
23866;SDS011;12114;53.404;-1.502;2022-08-18T16:36:38;11.38;;;5.38;;
23866;SDS011;12114;53.404;-1.502;2022-08-18T16:39:04;5.32;;;4.30;;
23866;SDS011;12114;53.404;-1.502;2022-08-18T16:41:29;7.00;;;4.10;;
23866;SDS011;12114;53.404;-1.502;2022-08-18T16:43:56;7.28;;;4.10;;
23866;SDS011;12114;53.404;-1.502;2022-08-18T16:46:22;9.00;;;4.70;;
23866;SDS011;12114;53.404;-1.502;2022-08-18T16:48:54;5.47;;;4.13;;
23866;SDS011;12114;53.404;-1.502;2022-08-18T16:51:20;7.22;;;4.35;;
23866;SDS011;12114;53.404;-1.502;2022-08-18T16:53:47;7.00;;;4.65;;
23866;SDS011;12114;53.404;-1.502;2022-08-18T16:56:14;6.57;;;4.63;;
23866;SDS011;12114;53.404;-1.502;2022-08-18T16:58:40;8.95;;;5.53;;
23866;SDS011;12114;53.404;-1.502;2022-08-18T17:01:24;8.13;;;6.18;;
23866;SDS011;12114;53.404;-1.502;2022-08-18T17:04:08;6.85;;;5.80;;
23866;SDS011;12114;53.404;-1.502;2022-08-18T17:06:36;8.40;;;6.35;;
23866;SDS011;12114;53.404;-1.502;2022-08-18T17:09:03;8.93;;;6.13;;
23866;SDS011;12114;53.404;-1.502;2022-08-18T17:11:28;7.35;;;6.10;;
23866;SDS011;12114;53.404;-1.502;2022-08-18T17:13:55;7.95;;;6.50;;
23866;SDS011;12114;53.404;-1.502;2022-08-18T17:16:22;9.90;;;6.15;;